sensor_id;sensor_type;location;lat;lon;timestamp;P1;durP1;ratioP1;P2;durP2;ratioP2
5303;SDS011;2674;49.722;10.892;2023-12-20T00:01:26;12.93;;;8.30;;
5303;SDS011;2674;49.722;10.892;2023-12-20T00:03:52;12.00;;;8.37;;
5303;SDS011;2674;49.722;10.892;2023-12-20T00:06:18;10.03;;;7.57;;
5303;SDS011;2674;49.722;10.892;2023-12-20T00:08:43;13.90;;;7.37;;
5303;SDS011;2674;49.722;10.892;2023-12-20T00:11:09;13.80;;;8.80;;
5303;SDS011;2674;49.722;10.892;2023-12-20T00:13:35;14.50;;;7.37;;
5303;SDS011;2674;49.722;10.892;2023-12-20T00:16:01;13.67;;;8.43;;
5303;SDS011;2674;49.722;10.892;2023-12-20T00:18:27;20.43;;;8.20;;
5303;SDS011;2674;49.722;10.892;2023-12-20T00:20:52;14.10;;;8.07;;
5303;SDS011;2674;49.722;10.892;2023-12-20T00:23:18;10.77;;;7.60;;
5303;SDS011;2674;49.722;10.892;2023-12-20T00:25:44;8.90;;;7.00;;
5303;SDS011;2674;49.722;10.892;2023-12-20T00:28:10;10.17;;;6.70;;
5303;SDS011;2674;49.722;10.892;2023-12-20T00:30:36;6.53;;;5.90;;
5303;SDS011;2674;49.722;10.892;2023-12-20T00:33:01;8.13;;;6.27;;
5303;SDS011;2674;49.722;10.892;2023-12-20T00:35:27;9.93;;;6.37;;
5303;SDS011;2674;49.722;10.892;2023-12-20T00:37:53;6.13;;;4.17;;
5303;SDS011;2674;49.722;10.892;2023-12-20T00:40:19;10.07;;;5.60;;
5303;SDS011;2674;49.722;10.892;2023-12-20T00:42:45;7.83;;;4.90;;
5303;SDS011;2674;49.722;10.892;2023-12-20T00:45:12;8.07;;;5.07;;
5303;SDS011;2674;49.722;10.892;2023-12-20T00:47:38;6.90;;;5.33;;
5303;SDS011;2674;49.722;10.892;2023-12-20T00:50:04;6.20;;;5.40;;
5303;SDS011;2674;49.722;10.892;2023-12-20T00:52:30;6.27;;;4.73;;
5303;SDS011;2674;49.722;10.892;2023-12-20T00:54:56;5.87;;;4.80;;
5303;SDS011;2674;49.722;10.892;2023-12-20T00:57:21;7.57;;;5.17;;
5303;SDS011;2674;49.722;10.892;2023-12-20T00:59:47;6.37;;;5.20;;
5303;SDS011;2674;49.722;10.892;2023-12-20T01:02:13;6.50;;;5.00;;
5303;SDS011;2674;49.722;10.892;2023-12-20T01:04:39;7.10;;;4.13;;
5303;SDS011;2674;49.722;10.892;2023-12-20T01:07:04;6.60;;;4.33;;
5303;SDS011;2674;49.722;10.892;2023-12-20T01:09:30;6.00;;;4.80;;
5303;SDS011;2674;49.722;10.892;2023-12-20T01:11:56;8.30;;;4.60;;
5303;SDS011;2674;49.722;10.892;2023-12-20T01:14:22;4.73;;;3.97;;
5303;SDS011;2674;49.722;10.892;2023-12-20T01:16:47;6.40;;;3.33;;
5303;SDS011;2674;49.722;10.892;2023-12-20T01:19:13;4.40;;;3.33;;
5303;SDS011;2674;49.722;10.892;2023-12-20T01:21:39;7.33;;;4.43;;
5303;SDS011;2674;49.722;10.892;2023-12-20T01:24:05;3.47;;;3.17;;
5303;SDS011;2674;49.722;10.892;2023-12-20T01:26:31;4.23;;;3.43;;
5303;SDS011;2674;49.722;10.892;2023-12-20T01:28:57;2.77;;;2.57;;
5303;SDS011;2674;49.722;10.892;2023-12-20T01:31:23;5.37;;;3.40;;
5303;SDS011;2674;49.722;10.892;2023-12-20T01:33:48;4.80;;;4.00;;
5303;SDS011;2674;49.722;10.892;2023-12-20T01:36:14;3.73;;;3.30;;
5303;SDS011;2674;49.722;10.892;2023-12-20T01:38:40;3.33;;;3.13;;
5303;SDS011;2674;49.722;10.892;2023-12-20T01:41:06;4.20;;;2.90;;
5303;SDS011;2674;49.722;10.892;2023-12-20T01:43:32;3.67;;;3.37;;
5303;SDS011;2674;49.722;10.892;2023-12-20T01:45:57;4.00;;;2.37;;
5303;SDS011;2674;49.722;10.892;2023-12-20T01:48:24;2.63;;;2.43;;
5303;SDS011;2674;49.722;10.892;2023-12-20T01:50:52;3.00;;;2.67;;
5303;SDS011;2674;49.722;10.892;2023-12-20T01:53:19;2.30;;;2.17;;
5303;SDS011;2674;49.722;10.892;2023-12-20T01:55:49;5.37;;;2.93;;
5303;SDS011;2674;49.722;10.892;2023-12-20T01:58:17;2.30;;;2.10;;
5303;SDS011;2674;49.722;10.892;2023-12-20T02:00:43;2.57;;;2.33;;
5303;SDS011;2674;49.722;10.892;2023-12-20T02:03:09;3.30;;;3.07;;
5303;SDS011;2674;49.722;10.892;2023-12-20T02:05:36;5.50;;;2.73;;
5303;SDS011;2674;49.722;10.892;2023-12-20T02:08:04;2.80;;;2.37;;
5303;SDS011;2674;49.722;10.892;2023-12-20T02:10:30;4.00;;;2.30;;
5303;SDS011;2674;49.722;10.892;2023-12-20T02:12:57;3.33;;;3.03;;
5303;SDS011;2674;49.722;10.892;2023-12-20T02:15:23;2.10;;;1.87;;
5303;SDS011;2674;49.722;10.892;2023-12-20T02:17:48;2.60;;;2.30;;
5303;SDS011;2674;49.722;10.892;2023-12-20T02:20:14;4.20;;;2.57;;
5303;SDS011;2674;49.722;10.892;2023-12-20T02:22:40;3.80;;;2.17;;
5303;SDS011;2674;49.722;10.892;2023-12-20T02:25:06;2.20;;;1.87;;
5303;SDS011;2674;49.722;10.892;2023-12-20T02:27:32;2.30;;;2.03;;
5303;SDS011;2674;49.722;10.892;2023-12-20T02:29:59;1.50;;;1.40;;
5303;SDS011;2674;49.722;10.892;2023-12-20T02:32:25;1.50;;;1.40;;
5303;SDS011;2674;49.722;10.892;2023-12-20T02:34:54;2.27;;;2.07;;
5303;SDS011;2674;49.722;10.892;2023-12-20T02:37:20;2.07;;;1.97;;
5303;SDS011;2674;49.722;10.892;2023-12-20T02:39:46;1.83;;;1.30;;
5303;SDS011;2674;49.722;10.892;2023-12-20T02:42:12;1.50;;;1.40;;
5303;SDS011;2674;49.722;10.892;2023-12-20T02:44:38;1.20;;;1.20;;
5303;SDS011;2674;49.722;10.892;2023-12-20T02:47:04;2.03;;;1.93;;
5303;SDS011;2674;49.722;10.892;2023-12-20T02:49:29;1.30;;;1.20;;
5303;SDS011;2674;49.722;10.892;2023-12-20T02:51:55;1.30;;;1.20;;
5303;SDS011;2674;49.722;10.892;2023-12-20T02:54:21;1.80;;;1.67;;
5303;SDS011;2674;49.722;10.892;2023-12-20T02:56:47;1.30;;;1.20;;
5303;SDS011;2674;49.722;10.892;2023-12-20T02:59:13;1.33;;;1.33;;
5303;SDS011;2674;49.722;10.892;2023-12-20T03:01:44;1.47;;;1.47;;
5303;SDS011;2674;49.722;10.892;2023-12-20T03:04:11;1.10;;;1.00;;
5303;SDS011;2674;49.722;10.892;2023-12-20T03:06:37;1.00;;;1.00;;
5303;SDS011;2674;49.722;10.892;2023-12-20T03:09:04;1.07;;;1.07;;
5303;SDS011;2674;49.722;10.892;2023-12-20T03:11:30;1.20;;;1.13;;
5303;SDS011;2674;49.722;10.892;2023-12-20T03:13:56;1.17;;;1.07;;
5303;SDS011;2674;49.722;10.892;2023-12-20T03:16:22;1.80;;;1.70;;
5303;SDS011;2674;49.722;10.892;2023-12-20T03:18:48;1.50;;;1.40;;
5303;SDS011;2674;49.722;10.892;2023-12-20T03:21:15;1.07;;;1.07;;
5303;SDS011;2674;49.722;10.892;2023-12-20T03:23:40;1.10;;;1.10;;
5303;SDS011;2674;49.722;10.892;2023-12-20T03:26:07;1.50;;;1.40;;
5303;SDS011;2674;49.722;10.892;2023-12-20T03:28:33;1.53;;;1.50;;
5303;SDS011;2674;49.722;10.892;2023-12-20T03:30:59;1.13;;;1.10;;
5303;SDS011;2674;49.722;10.892;2023-12-20T03:33:25;1.33;;;1.23;;
5303;SDS011;2674;49.722;10.892;2023-12-20T03:35:51;0.90;;;0.90;;
5303;SDS011;2674;49.722;10.892;2023-12-20T03:38:16;1.10;;;1.10;;
5303;SDS011;2674;49.722;10.892;2023-12-20T03:40:42;1.10;;;1.10;;
5303;SDS011;2674;49.722;10.892;2023-12-20T03:43:08;0.83;;;0.83;;
5303;SDS011;2674;49.722;10.892;2023-12-20T03:45:34;1.10;;;1.00;;
5303;SDS011;2674;49.722;10.892;2023-12-20T03:48:00;1.17;;;1.10;;
5303;SDS011;2674;49.722;10.892;2023-12-20T03:50:26;1.10;;;1.10;;
5303;SDS011;2674;49.722;10.892;2023-12-20T03:52:52;1.13;;;1.00;;
5303;SDS011;2674;49.722;10.892;2023-12-20T03:55:17;1.10;;;1.10;;
5303;SDS011;2674;49.722;10.892;2023-12-20T03:57:43;1.07;;;1.03;;
5303;SDS011;2674;49.722;10.892;2023-12-20T04:00:09;3.53;;;1.03;;
5303;SDS011;2674;49.722;10.892;2023-12-20T04:02:39;1.20;;;1.10;;
5303;SDS011;2674;49.722;10.892;2023-12-20T04:05:06;0.90;;;0.90;;
5303;SDS011;2674;49.722;10.892;2023-12-20T04:07:33;1.17;;;1.03;;
5303;SDS011;2674;49.722;10.892;2023-12-20T04:09:59;1.17;;;1.07;;
5303;SDS011;2674;49.722;10.892;2023-12-20T04:12:25;1.10;;;1.10;;
5303;SDS011;2674;49.722;10.892;2023-12-20T04:14:53;2.47;;;1.50;;
5303;SDS011;2674;49.722;10.892;2023-12-20T04:17:19;0.90;;;0.90;;
5303;SDS011;2674;49.722;10.892;2023-12-20T04:19:47;1.47;;;1.37;;
5303;SDS011;2674;49.722;10.892;2023-12-20T04:22:17;1.10;;;1.00;;
5303;SDS011;2674;49.722;10.892;2023-12-20T04:24:43;1.63;;;1.53;;
5303;SDS011;2674;49.722;10.892;2023-12-20T04:27:09;1.00;;;1.00;;
5303;SDS011;2674;49.722;10.892;2023-12-20T04:29:34;0.80;;;0.80;;
5303;SDS011;2674;49.722;10.892;2023-12-20T04:32:00;1.20;;;1.10;;
5303;SDS011;2674;49.722;10.892;2023-12-20T04:34:26;1.30;;;1.30;;
5303;SDS011;2674;49.722;10.892;2023-12-20T04:36:52;1.40;;;1.30;;
5303;SDS011;2674;49.722;10.892;2023-12-20T04:39:18;1.77;;;1.67;;
5303;SDS011;2674;49.722;10.892;2023-12-20T04:41:44;1.53;;;1.43;;
5303;SDS011;2674;49.722;10.892;2023-12-20T04:44:10;1.87;;;1.77;;
5303;SDS011;2674;49.722;10.892;2023-12-20T04:46:36;1.60;;;1.50;;
5303;SDS011;2674;49.722;10.892;2023-12-20T04:49:01;1.60;;;1.53;;
5303;SDS011;2674;49.722;10.892;2023-12-20T04:51:27;2.10;;;2.00;;
5303;SDS011;2674;49.722;10.892;2023-12-20T04:53:53;2.10;;;2.00;;
5303;SDS011;2674;49.722;10.892;2023-12-20T04:56:19;1.83;;;1.70;;
5303;SDS011;2674;49.722;10.892;2023-12-20T04:58:45;1.53;;;1.43;;
5303;SDS011;2674;49.722;10.892;2023-12-20T05:01:11;1.53;;;1.43;;
5303;SDS011;2674;49.722;10.892;2023-12-20T05:03:37;1.87;;;1.77;;
5303;SDS011;2674;49.722;10.892;2023-12-20T05:06:03;3.57;;;2.17;;
5303;SDS011;2674;49.722;10.892;2023-12-20T05:08:29;1.53;;;1.43;;
5303;SDS011;2674;49.722;10.892;2023-12-20T05:10:55;2.00;;;1.90;;
5303;SDS011;2674;49.722;10.892;2023-12-20T05:13:21;1.00;;;1.00;;
5303;SDS011;2674;49.722;10.892;2023-12-20T05:15:47;1.40;;;1.30;;
5303;SDS011;2674;49.722;10.892;2023-12-20T05:18:13;1.70;;;1.60;;
5303;SDS011;2674;49.722;10.892;2023-12-20T05:20:39;2.63;;;2.43;;
5303;SDS011;2674;49.722;10.892;2023-12-20T05:23:05;1.60;;;1.50;;
5303;SDS011;2674;49.722;10.892;2023-12-20T05:25:31;1.13;;;1.13;;
5303;SDS011;2674;49.722;10.892;2023-12-20T05:27:57;2.60;;;2.17;;
5303;SDS011;2674;49.722;10.892;2023-12-20T05:30:23;3.07;;;2.83;;
5303;SDS011;2674;49.722;10.892;2023-12-20T05:32:49;2.70;;;2.40;;
5303;SDS011;2674;49.722;10.892;2023-12-20T05:35:15;1.43;;;1.33;;
5303;SDS011;2674;49.722;10.892;2023-12-20T05:37:41;2.10;;;2.00;;
5303;SDS011;2674;49.722;10.892;2023-12-20T05:40:07;1.70;;;1.60;;
5303;SDS011;2674;49.722;10.892;2023-12-20T05:42:36;2.07;;;1.97;;
5303;SDS011;2674;49.722;10.892;2023-12-20T05:45:03;1.90;;;1.80;;
5303;SDS011;2674;49.722;10.892;2023-12-20T05:47:29;1.97;;;1.90;;
5303;SDS011;2674;49.722;10.892;2023-12-20T05:49:55;1.70;;;1.60;;
5303;SDS011;2674;49.722;10.892;2023-12-20T05:52:20;1.60;;;1.50;;
5303;SDS011;2674;49.722;10.892;2023-12-20T05:54:47;1.53;;;1.43;;
5303;SDS011;2674;49.722;10.892;2023-12-20T05:57:12;3.03;;;1.60;;
5303;SDS011;2674;49.722;10.892;2023-12-20T05:59:38;1.80;;;1.70;;
5303;SDS011;2674;49.722;10.892;2023-12-20T06:02:04;1.67;;;1.57;;
5303;SDS011;2674;49.722;10.892;2023-12-20T06:04:30;1.43;;;1.43;;
5303;SDS011;2674;49.722;10.892;2023-12-20T06:06:56;1.67;;;1.67;;
5303;SDS011;2674;49.722;10.892;2023-12-20T06:09:22;1.40;;;1.30;;
5303;SDS011;2674;49.722;10.892;2023-12-20T06:11:49;1.80;;;1.70;;
5303;SDS011;2674;49.722;10.892;2023-12-20T06:14:16;2.93;;;1.40;;
5303;SDS011;2674;49.722;10.892;2023-12-20T06:16:41;1.80;;;1.70;;
5303;SDS011;2674;49.722;10.892;2023-12-20T06:19:08;2.03;;;1.93;;
5303;SDS011;2674;49.722;10.892;2023-12-20T06:21:33;1.53;;;1.53;;
5303;SDS011;2674;49.722;10.892;2023-12-20T06:23:59;3.70;;;2.30;;
5303;SDS011;2674;49.722;10.892;2023-12-20T06:26:25;2.60;;;2.40;;
5303;SDS011;2674;49.722;10.892;2023-12-20T06:28:51;2.37;;;2.20;;
5303;SDS011;2674;49.722;10.892;2023-12-20T06:31:17;1.93;;;1.83;;
5303;SDS011;2674;49.722;10.892;2023-12-20T06:33:43;2.60;;;2.40;;
5303;SDS011;2674;49.722;10.892;2023-12-20T06:36:12;2.00;;;1.90;;
5303;SDS011;2674;49.722;10.892;2023-12-20T06:38:38;2.27;;;2.13;;
5303;SDS011;2674;49.722;10.892;2023-12-20T06:41:05;2.93;;;2.70;;
5303;SDS011;2674;49.722;10.892;2023-12-20T06:43:31;2.60;;;2.47;;
5303;SDS011;2674;49.722;10.892;2023-12-20T06:45:57;2.50;;;2.30;;
5303;SDS011;2674;49.722;10.892;2023-12-20T06:48:23;3.10;;;2.80;;
5303;SDS011;2674;49.722;10.892;2023-12-20T06:50:49;2.57;;;2.47;;
5303;SDS011;2674;49.722;10.892;2023-12-20T06:53:15;2.40;;;2.30;;
5303;SDS011;2674;49.722;10.892;2023-12-20T06:55:41;3.17;;;2.97;;
5303;SDS011;2674;49.722;10.892;2023-12-20T06:58:07;3.00;;;2.70;;
5303;SDS011;2674;49.722;10.892;2023-12-20T07:00:34;2.10;;;2.00;;
5303;SDS011;2674;49.722;10.892;2023-12-20T07:02:59;2.70;;;2.50;;
5303;SDS011;2674;49.722;10.892;2023-12-20T07:05:25;2.30;;;2.10;;
5303;SDS011;2674;49.722;10.892;2023-12-20T07:07:51;2.60;;;2.40;;
5303;SDS011;2674;49.722;10.892;2023-12-20T07:10:17;2.20;;;2.10;;
5303;SDS011;2674;49.722;10.892;2023-12-20T07:12:43;6.20;;;2.70;;
5303;SDS011;2674;49.722;10.892;2023-12-20T07:15:09;2.50;;;2.30;;
5303;SDS011;2674;49.722;10.892;2023-12-20T07:17:35;2.67;;;2.47;;
5303;SDS011;2674;49.722;10.892;2023-12-20T07:20:01;2.60;;;2.40;;
5303;SDS011;2674;49.722;10.892;2023-12-20T07:22:31;3.13;;;2.93;;
5303;SDS011;2674;49.722;10.892;2023-12-20T07:24:58;3.20;;;3.00;;
5303;SDS011;2674;49.722;10.892;2023-12-20T07:27:24;3.37;;;3.07;;
5303;SDS011;2674;49.722;10.892;2023-12-20T07:29:50;3.33;;;3.10;;
5303;SDS011;2674;49.722;10.892;2023-12-20T07:32:16;4.00;;;3.13;;
5303;SDS011;2674;49.722;10.892;2023-12-20T07:34:42;2.70;;;2.50;;
5303;SDS011;2674;49.722;10.892;2023-12-20T07:37:08;5.40;;;4.07;;
5303;SDS011;2674;49.722;10.892;2023-12-20T07:39:35;4.47;;;4.07;;
5303;SDS011;2674;49.722;10.892;2023-12-20T07:42:01;4.93;;;4.50;;
5303;SDS011;2674;49.722;10.892;2023-12-20T07:44:27;5.97;;;5.37;;
5303;SDS011;2674;49.722;10.892;2023-12-20T07:46:53;5.17;;;4.70;;
5303;SDS011;2674;49.722;10.892;2023-12-20T07:49:19;6.00;;;5.13;;
5303;SDS011;2674;49.722;10.892;2023-12-20T07:51:44;5.60;;;4.83;;
5303;SDS011;2674;49.722;10.892;2023-12-20T07:54:10;5.87;;;4.97;;
5303;SDS011;2674;49.722;10.892;2023-12-20T07:56:36;8.53;;;6.13;;
5303;SDS011;2674;49.722;10.892;2023-12-20T07:59:02;8.70;;;4.73;;
5303;SDS011;2674;49.722;10.892;2023-12-20T08:01:28;5.07;;;4.57;;
5303;SDS011;2674;49.722;10.892;2023-12-20T08:03:53;4.60;;;4.20;;
5303;SDS011;2674;49.722;10.892;2023-12-20T08:06:19;4.37;;;3.97;;
5303;SDS011;2674;49.722;10.892;2023-12-20T08:08:46;11.63;;;4.30;;
5303;SDS011;2674;49.722;10.892;2023-12-20T08:11:12;5.30;;;4.57;;
5303;SDS011;2674;49.722;10.892;2023-12-20T08:13:37;5.60;;;4.53;;
5303;SDS011;2674;49.722;10.892;2023-12-20T08:16:03;5.47;;;4.60;;
5303;SDS011;2674;49.722;10.892;2023-12-20T08:18:29;6.03;;;5.30;;
5303;SDS011;2674;49.722;10.892;2023-12-20T08:20:55;5.47;;;4.87;;
5303;SDS011;2674;49.722;10.892;2023-12-20T08:23:21;5.40;;;4.77;;
5303;SDS011;2674;49.722;10.892;2023-12-20T08:25:47;3.97;;;3.67;;
5303;SDS011;2674;49.722;10.892;2023-12-20T08:28:13;4.40;;;4.00;;
5303;SDS011;2674;49.722;10.892;2023-12-20T08:30:39;5.53;;;4.90;;
5303;SDS011;2674;49.722;10.892;2023-12-20T08:33:06;5.70;;;5.10;;
5303;SDS011;2674;49.722;10.892;2023-12-20T08:35:36;4.90;;;4.50;;
5303;SDS011;2674;49.722;10.892;2023-12-20T08:38:02;5.00;;;4.50;;
5303;SDS011;2674;49.722;10.892;2023-12-20T08:40:29;4.90;;;4.40;;
5303;SDS011;2674;49.722;10.892;2023-12-20T08:42:55;4.80;;;4.33;;
5303;SDS011;2674;49.722;10.892;2023-12-20T08:45:21;9.23;;;5.40;;
5303;SDS011;2674;49.722;10.892;2023-12-20T08:47:46;5.00;;;4.50;;
5303;SDS011;2674;49.722;10.892;2023-12-20T08:50:12;4.90;;;4.47;;
5303;SDS011;2674;49.722;10.892;2023-12-20T08:52:38;5.10;;;4.70;;
5303;SDS011;2674;49.722;10.892;2023-12-20T08:55:04;4.63;;;4.23;;
5303;SDS011;2674;49.722;10.892;2023-12-20T08:57:30;4.80;;;4.27;;
5303;SDS011;2674;49.722;10.892;2023-12-20T08:59:57;6.33;;;4.60;;
5303;SDS011;2674;49.722;10.892;2023-12-20T09:02:22;6.93;;;4.70;;
5303;SDS011;2674;49.722;10.892;2023-12-20T09:04:48;5.73;;;3.57;;
5303;SDS011;2674;49.722;10.892;2023-12-20T09:07:24;3.70;;;3.40;;
5303;SDS011;2674;49.722;10.892;2023-12-20T09:09:51;4.33;;;4.03;;
5303;SDS011;2674;49.722;10.892;2023-12-20T09:12:17;3.43;;;3.13;;
5303;SDS011;2674;49.722;10.892;2023-12-20T09:14:47;5.53;;;3.90;;
5303;SDS011;2674;49.722;10.892;2023-12-20T09:17:14;4.03;;;3.43;;
5303;SDS011;2674;49.722;10.892;2023-12-20T09:19:41;3.93;;;3.57;;
5303;SDS011;2674;49.722;10.892;2023-12-20T09:22:08;5.60;;;3.50;;
5303;SDS011;2674;49.722;10.892;2023-12-20T09:24:35;4.20;;;3.87;;
5303;SDS011;2674;49.722;10.892;2023-12-20T09:27:01;5.73;;;3.60;;
5303;SDS011;2674;49.722;10.892;2023-12-20T09:29:27;3.33;;;3.03;;
5303;SDS011;2674;49.722;10.892;2023-12-20T09:31:56;3.43;;;2.87;;
5303;SDS011;2674;49.722;10.892;2023-12-20T09:34:23;3.10;;;2.70;;
5303;SDS011;2674;49.722;10.892;2023-12-20T09:36:49;3.37;;;2.50;;
5303;SDS011;2674;49.722;10.892;2023-12-20T09:39:18;5.63;;;2.40;;
5303;SDS011;2674;49.722;10.892;2023-12-20T09:44:27;3.03;;;2.50;;
5303;SDS011;2674;49.722;10.892;2023-12-20T09:46:54;8.67;;;2.83;;
5303;SDS011;2674;49.722;10.892;2023-12-20T09:49:21;10.57;;;2.90;;
5303;SDS011;2674;49.722;10.892;2023-12-20T09:51:47;14.70;;;3.10;;
5303;SDS011;2674;49.722;10.892;2023-12-20T09:54:15;2.33;;;2.10;;
5303;SDS011;2674;49.722;10.892;2023-12-20T09:56:42;6.87;;;2.97;;
5303;SDS011;2674;49.722;10.892;2023-12-20T09:59:09;2.73;;;2.00;;
5303;SDS011;2674;49.722;10.892;2023-12-20T10:01:35;9.70;;;2.40;;
5303;SDS011;2674;49.722;10.892;2023-12-20T10:04:06;5.00;;;2.80;;
5303;SDS011;2674;49.722;10.892;2023-12-20T10:06:37;6.13;;;2.17;;
5303;SDS011;2674;49.722;10.892;2023-12-20T10:09:07;2.37;;;2.20;;
5303;SDS011;2674;49.722;10.892;2023-12-20T10:11:37;3.77;;;1.80;;
5303;SDS011;2674;49.722;10.892;2023-12-20T10:14:04;7.70;;;2.50;;
5303;SDS011;2674;49.722;10.892;2023-12-20T10:16:31;4.63;;;1.93;;
5303;SDS011;2674;49.722;10.892;2023-12-20T10:18:57;2.33;;;1.70;;
5303;SDS011;2674;49.722;10.892;2023-12-20T10:21:24;7.73;;;2.23;;
5303;SDS011;2674;49.722;10.892;2023-12-20T10:23:51;6.87;;;3.17;;
5303;SDS011;2674;49.722;10.892;2023-12-20T10:26:30;10.23;;;1.80;;
5303;SDS011;2674;49.722;10.892;2023-12-20T10:28:56;4.30;;;2.33;;
5303;SDS011;2674;49.722;10.892;2023-12-20T10:31:29;1.93;;;1.83;;
5303;SDS011;2674;49.722;10.892;2023-12-20T10:33:58;4.10;;;2.43;;
5303;SDS011;2674;49.722;10.892;2023-12-20T10:36:25;2.30;;;1.70;;
5303;SDS011;2674;49.722;10.892;2023-12-20T10:38:52;2.07;;;1.87;;
5303;SDS011;2674;49.722;10.892;2023-12-20T10:41:21;3.03;;;2.00;;
5303;SDS011;2674;49.722;10.892;2023-12-20T10:44:02;8.07;;;2.17;;
5303;SDS011;2674;49.722;10.892;2023-12-20T10:46:33;3.30;;;2.57;;
5303;SDS011;2674;49.722;10.892;2023-12-20T10:48:59;3.40;;;2.03;;
5303;SDS011;2674;49.722;10.892;2023-12-20T10:51:28;12.63;;;2.43;;
5303;SDS011;2674;49.722;10.892;2023-12-20T10:53:57;2.43;;;1.60;;
5303;SDS011;2674;49.722;10.892;2023-12-20T10:56:23;2.37;;;2.17;;
5303;SDS011;2674;49.722;10.892;2023-12-20T10:58:49;2.90;;;1.30;;
5303;SDS011;2674;49.722;10.892;2023-12-20T11:01:18;1.73;;;1.50;;
5303;SDS011;2674;49.722;10.892;2023-12-20T11:03:49;4.90;;;2.13;;
5303;SDS011;2674;49.722;10.892;2023-12-20T11:06:22;6.43;;;2.40;;
5303;SDS011;2674;49.722;10.892;2023-12-20T11:11:52;2.93;;;2.20;;
5303;SDS011;2674;49.722;10.892;2023-12-20T11:14:29;7.07;;;2.20;;
5303;SDS011;2674;49.722;10.892;2023-12-20T11:17:06;2.17;;;1.60;;
5303;SDS011;2674;49.722;10.892;2023-12-20T11:19:36;5.23;;;2.20;;
5303;SDS011;2674;49.722;10.892;2023-12-20T11:22:03;4.07;;;2.23;;
5303;SDS011;2674;49.722;10.892;2023-12-20T11:24:31;4.70;;;1.87;;
5303;SDS011;2674;49.722;10.892;2023-12-20T11:26:59;2.60;;;1.90;;
5303;SDS011;2674;49.722;10.892;2023-12-20T11:29:36;5.13;;;2.43;;
5303;SDS011;2674;49.722;10.892;2023-12-20T11:32:03;3.17;;;2.20;;
5303;SDS011;2674;49.722;10.892;2023-12-20T11:34:50;5.40;;;2.33;;
5303;SDS011;2674;49.722;10.892;2023-12-20T11:37:16;3.80;;;2.43;;
5303;SDS011;2674;49.722;10.892;2023-12-20T11:39:45;6.37;;;3.00;;
5303;SDS011;2674;49.722;10.892;2023-12-20T11:42:19;4.63;;;2.03;;
5303;SDS011;2674;49.722;10.892;2023-12-20T11:44:45;3.13;;;2.33;;
5303;SDS011;2674;49.722;10.892;2023-12-20T11:47:12;5.90;;;2.57;;
5303;SDS011;2674;49.722;10.892;2023-12-20T11:49:39;6.27;;;2.13;;
5303;SDS011;2674;49.722;10.892;2023-12-20T11:52:05;6.60;;;2.83;;
5303;SDS011;2674;49.722;10.892;2023-12-20T11:54:31;3.77;;;2.30;;
5303;SDS011;2674;49.722;10.892;2023-12-20T11:56:57;5.07;;;1.50;;
5303;SDS011;2674;49.722;10.892;2023-12-20T11:59:23;1.93;;;1.50;;
5303;SDS011;2674;49.722;10.892;2023-12-20T12:01:49;5.17;;;2.33;;
5303;SDS011;2674;49.722;10.892;2023-12-20T12:04:15;1.93;;;1.83;;
5303;SDS011;2674;49.722;10.892;2023-12-20T12:06:43;8.00;;;2.20;;
5303;SDS011;2674;49.722;10.892;2023-12-20T12:09:10;4.57;;;2.50;;
5303;SDS011;2674;49.722;10.892;2023-12-20T12:11:35;7.63;;;2.07;;
5303;SDS011;2674;49.722;10.892;2023-12-20T12:14:04;6.33;;;2.10;;
5303;SDS011;2674;49.722;10.892;2023-12-20T12:16:32;4.70;;;1.70;;
5303;SDS011;2674;49.722;10.892;2023-12-20T12:18:58;2.17;;;1.83;;
5303;SDS011;2674;49.722;10.892;2023-12-20T12:21:24;2.87;;;2.10;;
5303;SDS011;2674;49.722;10.892;2023-12-20T12:23:50;2.57;;;2.03;;
5303;SDS011;2674;49.722;10.892;2023-12-20T12:26:16;3.00;;;2.00;;
5303;SDS011;2674;49.722;10.892;2023-12-20T12:28:42;3.23;;;2.17;;
5303;SDS011;2674;49.722;10.892;2023-12-20T12:31:17;6.67;;;2.57;;
5303;SDS011;2674;49.722;10.892;2023-12-20T12:33:43;4.00;;;2.60;;
5303;SDS011;2674;49.722;10.892;2023-12-20T12:36:09;7.30;;;2.33;;
5303;SDS011;2674;49.722;10.892;2023-12-20T12:38:36;4.50;;;2.93;;
5303;SDS011;2674;49.722;10.892;2023-12-20T12:41:02;2.13;;;1.97;;
5303;SDS011;2674;49.722;10.892;2023-12-20T12:43:28;3.50;;;2.20;;
5303;SDS011;2674;49.722;10.892;2023-12-20T12:45:54;7.13;;;1.97;;
5303;SDS011;2674;49.722;10.892;2023-12-20T12:48:20;3.03;;;1.97;;
5303;SDS011;2674;49.722;10.892;2023-12-20T12:50:46;6.00;;;2.20;;
5303;SDS011;2674;49.722;10.892;2023-12-20T12:53:12;8.87;;;3.73;;
5303;SDS011;2674;49.722;10.892;2023-12-20T12:55:38;6.07;;;2.97;;
5303;SDS011;2674;49.722;10.892;2023-12-20T12:58:04;3.23;;;2.43;;
5303;SDS011;2674;49.722;10.892;2023-12-20T13:00:30;8.63;;;3.80;;
5303;SDS011;2674;49.722;10.892;2023-12-20T13:02:56;3.33;;;3.03;;
5303;SDS011;2674;49.722;10.892;2023-12-20T13:05:21;5.37;;;2.20;;
5303;SDS011;2674;49.722;10.892;2023-12-20T13:07:47;3.07;;;2.77;;
5303;SDS011;2674;49.722;10.892;2023-12-20T13:10:13;8.37;;;2.40;;
5303;SDS011;2674;49.722;10.892;2023-12-20T13:12:41;8.60;;;2.67;;
5303;SDS011;2674;49.722;10.892;2023-12-20T13:15:08;2.93;;;1.83;;
5303;SDS011;2674;49.722;10.892;2023-12-20T13:17:34;4.00;;;2.70;;
5303;SDS011;2674;49.722;10.892;2023-12-20T13:20:00;3.20;;;2.40;;
5303;SDS011;2674;49.722;10.892;2023-12-20T13:22:25;3.70;;;2.37;;
5303;SDS011;2674;49.722;10.892;2023-12-20T13:24:51;10.00;;;2.40;;
5303;SDS011;2674;49.722;10.892;2023-12-20T13:27:17;6.37;;;2.33;;
5303;SDS011;2674;49.722;10.892;2023-12-20T13:29:43;4.63;;;2.23;;
5303;SDS011;2674;49.722;10.892;2023-12-20T13:32:09;9.13;;;2.90;;
5303;SDS011;2674;49.722;10.892;2023-12-20T13:34:34;4.10;;;2.67;;
5303;SDS011;2674;49.722;10.892;2023-12-20T13:37:00;6.50;;;2.80;;
5303;SDS011;2674;49.722;10.892;2023-12-20T13:39:26;13.33;;;2.80;;
5303;SDS011;2674;49.722;10.892;2023-12-20T13:41:52;3.00;;;2.20;;
5303;SDS011;2674;49.722;10.892;2023-12-20T13:44:18;6.87;;;2.60;;
5303;SDS011;2674;49.722;10.892;2023-12-20T13:46:44;6.23;;;3.17;;
5303;SDS011;2674;49.722;10.892;2023-12-20T13:49:11;8.20;;;2.30;;
5303;SDS011;2674;49.722;10.892;2023-12-20T13:51:37;10.93;;;3.77;;
5303;SDS011;2674;49.722;10.892;2023-12-20T13:54:03;3.00;;;1.97;;
5303;SDS011;2674;49.722;10.892;2023-12-20T13:56:29;4.20;;;2.27;;
5303;SDS011;2674;49.722;10.892;2023-12-20T13:58:55;13.23;;;2.90;;
5303;SDS011;2674;49.722;10.892;2023-12-20T14:01:22;3.83;;;2.20;;
5303;SDS011;2674;49.722;10.892;2023-12-20T14:03:51;3.00;;;2.20;;
5303;SDS011;2674;49.722;10.892;2023-12-20T14:06:17;6.33;;;2.50;;
5303;SDS011;2674;49.722;10.892;2023-12-20T14:08:43;3.33;;;2.27;;
5303;SDS011;2674;49.722;10.892;2023-12-20T14:11:09;8.63;;;4.00;;
5303;SDS011;2674;49.722;10.892;2023-12-20T14:13:41;10.33;;;3.57;;
5303;SDS011;2674;49.722;10.892;2023-12-20T14:16:08;5.30;;;2.83;;
5303;SDS011;2674;49.722;10.892;2023-12-20T14:18:35;6.47;;;2.70;;
5303;SDS011;2674;49.722;10.892;2023-12-20T14:21:01;6.40;;;3.27;;
5303;SDS011;2674;49.722;10.892;2023-12-20T14:23:27;5.03;;;2.93;;
5303;SDS011;2674;49.722;10.892;2023-12-20T14:25:53;5.30;;;2.50;;
5303;SDS011;2674;49.722;10.892;2023-12-20T14:28:20;5.27;;;2.80;;
5303;SDS011;2674;49.722;10.892;2023-12-20T14:30:46;5.83;;;2.33;;
5303;SDS011;2674;49.722;10.892;2023-12-20T14:33:14;12.13;;;2.40;;
5303;SDS011;2674;49.722;10.892;2023-12-20T14:35:39;2.30;;;2.10;;
5303;SDS011;2674;49.722;10.892;2023-12-20T14:38:07;4.90;;;2.07;;
5303;SDS011;2674;49.722;10.892;2023-12-20T14:40:33;6.03;;;1.67;;
5303;SDS011;2674;49.722;10.892;2023-12-20T14:42:59;2.70;;;1.93;;
5303;SDS011;2674;49.722;10.892;2023-12-20T14:45:25;8.43;;;2.70;;
5303;SDS011;2674;49.722;10.892;2023-12-20T14:47:51;2.60;;;1.87;;
5303;SDS011;2674;49.722;10.892;2023-12-20T14:50:16;7.00;;;1.97;;
5303;SDS011;2674;49.722;10.892;2023-12-20T14:52:43;5.50;;;2.40;;
5303;SDS011;2674;49.722;10.892;2023-12-20T14:55:10;5.60;;;2.30;;
5303;SDS011;2674;49.722;10.892;2023-12-20T14:57:36;2.20;;;2.00;;
5303;SDS011;2674;49.722;10.892;2023-12-20T15:00:02;7.37;;;2.30;;
5303;SDS011;2674;49.722;10.892;2023-12-20T15:02:28;4.27;;;2.20;;